Terminal Aerodrome Forecast
Issued by NWS

Home | Current Version | Previous Version | Text Only | Print | Product List | Glossary On
Versions: 1 2 3 4 5 6 7 8 9 10 11 12 13 14 15 16 17 18 19 20 21
000
FTUS43 KIND 262300
TAFLAF
TAF
KLAF 262320Z 2700/2724 35010KT P6SM SCT025 OVC040
      TEMPO 2700/2704 -SHSN BKN025
     FM270600 32005KT P6SM SCT025
     FM271400 29007KT P6SM BKN040
      AMD LTD TO CLD VIS AND WIND 2702/2714=

USA.gov is the U.S. government's official web portal to all federal, state and local government web resources and services.